Time;durP1;ratioP1;P1;durP2;ratioP2;P2;SDS_P1;SDS_P2;PMS_P1;PMS_P2;Temp;Humidity;BMP_temperature;BMP_pressure;BME280_temperature;BME280_humidity;BME280_pressure;Samples;Min_cycle;Max_cycle;Signal;HPM_P1;HPM_P2
2023/06/18 00:01:29;;;;;;;10.03;9.03;;;16.40;99.90;;;;;;5002988;28;20183;-40
2023/06/18 00:03:55;;;;;;;12.03;8.97;;;16.20;99.90;;;;;;4994859;28;20183;-36
2023/06/18 00:06:21;;;;;;;11.70;9.47;;;16.00;99.90;;;;;;4989446;28;20246;-35
2023/06/18 00:08:47;;;;;;;10.67;9.47;;;15.90;99.90;;;;;;4992170;28;20194;-34
2023/06/18 00:11:13;;;;;;;11.63;9.23;;;15.80;99.90;;;;;;4993136;28;20191;-39
2023/06/18 00:13:39;;;;;;;9.30;8.40;;;15.90;99.90;;;;;;5009454;28;20218;-38
2023/06/18 00:16:05;;;;;;;10.17;9.17;;;15.80;99.90;;;;;;5011003;28;20188;-39
2023/06/18 00:18:33;;;;;;;11.03;9.23;;;15.80;99.90;;;;;;5012744;28;20210;-39
2023/06/18 00:20:59;;;;;;;10.70;9.60;;;15.80;99.90;;;;;;5001835;28;20187;-39
2023/06/18 00:23:25;;;;;;;10.07;9.07;;;15.70;99.90;;;;;;5001110;28;20184;-37
2023/06/18 00:25:50;;;;;;;9.87;8.87;;;15.80;99.90;;;;;;4996087;28;20179;-38
2023/06/18 00:28:16;;;;;;;9.77;8.70;;;15.80;99.90;;;;;;4995760;28;20233;-35
2023/06/18 00:30:42;;;;;;;10.67;9.60;;;15.80;99.90;;;;;;4981636;28;20223;-38
2023/06/18 00:33:08;;;;;;;13.60;10.07;;;15.70;99.90;;;;;;4994805;28;20204;-37
2023/06/18 00:35:34;;;;;;;10.90;9.83;;;15.60;99.90;;;;;;4996042;28;20183;-38
2023/06/18 00:38:02;;;;;;;12.83;10.97;;;15.60;99.90;;;;;;4995904;28;20207;-36
2023/06/18 00:40:28;;;;;;;11.70;10.07;;;15.60;99.90;;;;;;4995531;28;20191;-39
2023/06/18 00:42:55;;;;;;;11.20;10.10;;;15.60;99.90;;;;;;4995820;28;20195;-34
2023/06/18 00:45:22;;;;;;;11.10;9.47;;;15.60;99.90;;;;;;4995895;28;20179;-38
2023/06/18 00:47:48;;;;;;;11.73;10.40;;;15.60;99.90;;;;;;4995656;28;20301;-37
2023/06/18 00:50:16;;;;;;;10.77;9.70;;;15.60;99.90;;;;;;4996185;28;20330;-40
2023/06/18 00:52:47;;;;;;;12.07;10.30;;;15.50;99.90;;;;;;4997375;28;20211;-35
2023/06/18 00:55:16;;;;;;;10.37;9.27;;;15.50;99.90;;;;;;4992981;28;20186;-36
2023/06/18 00:57:49;;;;;;;10.60;9.33;;;15.40;99.90;;;;;;4992137;28;20203;-37
2023/06/18 01:00:21;;;;;;;11.07;9.93;;;15.30;99.90;;;;;;4992682;28;20795;-35
2023/06/18 01:02:53;;;;;;;11.10;9.20;;;15.30;99.90;;;;;;5008847;28;20194;-36
2023/06/18 01:05:20;;;;;;;11.83;9.60;;;15.10;99.90;;;;;;4992332;28;20211;-34
2023/06/18 01:07:49;;;;;;;10.83;9.03;;;15.10;99.90;;;;;;5008448;28;20241;-35
2023/06/18 01:10:17;;;;;;;10.43;9.33;;;15.10;99.90;;;;;;5008913;28;20188;-36
2023/06/18 01:12:48;;;;;;;10.30;9.20;;;15.10;99.90;;;;;;4995190;28;20214;-35
2023/06/18 01:15:20;;;;;;;11.83;9.27;;;15.10;99.90;;;;;;5010395;28;20230;-39
2023/06/18 01:17:48;;;;;;;11.47;9.87;;;15.10;99.90;;;;;;4979777;28;20223;-40
2023/06/18 01:20:16;;;;;;;11.63;10.27;;;15.10;99.90;;;;;;5010149;28;20850;-34
2023/06/18 01:23:12;;;;;;;11.77;10.03;;;15.10;99.90;;;;;;5004856;28;20184;-38
2023/06/18 01:25:39;;;;;;;12.03;10.03;;;15.10;99.90;;;;;;5005125;28;20191;-37
2023/06/18 01:28:07;;;;;;;10.80;9.80;;;15.20;99.90;;;;;;4991917;28;20210;-37
2023/06/18 01:30:36;;;;;;;11.67;10.47;;;15.20;99.90;;;;;;4995389;28;20187;-36
2023/06/18 01:33:03;;;;;;;11.20;9.83;;;15.20;99.90;;;;;;4994429;28;20298;-37
2023/06/18 01:35:29;;;;;;;11.67;9.73;;;15.10;99.90;;;;;;4986992;28;20188;-37
2023/06/18 01:38:01;;;;;;;12.13;9.97;;;15.10;99.90;;;;;;4995042;28;20203;-37
2023/06/18 01:40:48;;;;;;;13.37;9.50;;;15.10;99.90;;;;;;4994718;28;20191;-39
2023/06/18 01:43:26;;;;;;;11.33;10.13;;;15.00;99.90;;;;;;5000522;28;20187;-34
2023/06/18 01:46:05;;;;;;;11.10;9.90;;;14.90;99.90;;;;;;5007374;28;20191;-37
2023/06/18 01:48:39;;;;;;;11.53;9.77;;;14.90;99.90;;;;;;5018711;28;20183;-37
2023/06/18 01:51:06;;;;;;;10.73;9.20;;;14.80;99.90;;;;;;4994252;28;20187;-34
2023/06/18 01:53:35;;;;;;;9.27;8.37;;;14.80;99.90;;;;;;5007421;28;20215;-36
2023/06/18 01:56:02;;;;;;;10.83;9.73;;;14.80;99.90;;;;;;4994568;28;20180;-35
2023/06/18 01:58:33;;;;;;;11.10;9.23;;;14.70;99.90;;;;;;4997739;28;20266;-36
2023/06/18 02:01:00;;;;;;;10.03;9.00;;;14.80;99.90;;;;;;4999929;28;20184;-38
2023/06/18 02:03:27;;;;;;;10.73;9.47;;;14.80;99.90;;;;;;4994722;28;20187;-38
2023/06/18 02:05:52;;;;;;;10.03;9.07;;;14.80;99.90;;;;;;4993888;28;20671;-36
2023/06/18 02:08:18;;;;;;;10.63;9.57;;;14.80;99.90;;;;;;4993768;28;20187;-38
2023/06/18 02:10:45;;;;;;;11.80;9.53;;;14.80;99.90;;;;;;4994231;28;20183;-38
2023/06/18 02:13:12;;;;;;;9.80;8.90;;;14.80;99.90;;;;;;4991819;28;20257;-37
2023/06/18 02:15:38;;;;;;;10.63;9.60;;;14.80;99.90;;;;;;4994344;28;20192;-39
2023/06/18 02:18:03;;;;;;;11.63;9.23;;;14.80;99.90;;;;;;4998640;28;20316;-35
2023/06/18 02:20:29;;;;;;;10.00;9.00;;;14.70;99.90;;;;;;5010482;28;20683;-36
2023/06/18 02:22:55;;;;;;;10.93;9.77;;;14.70;99.90;;;;;;4993936;28;20196;-36
2023/06/18 02:25:28;;;;;;;10.10;9.17;;;14.60;99.90;;;;;;4998692;28;20207;-35
2023/06/18 02:27:57;;;;;;;10.83;9.73;;;14.50;99.90;;;;;;5010267;28;20203;-36
2023/06/18 02:30:23;;;;;;;10.70;9.70;;;14.50;99.90;;;;;;5016448;28;20267;-35
2023/06/18 02:32:50;;;;;;;10.87;9.77;;;14.40;99.90;;;;;;5010069;28;20209;-38
2023/06/18 02:35:16;;;;;;;10.33;9.33;;;14.40;99.90;;;;;;4993388;28;20198;-36
2023/06/18 02:37:42;;;;;;;10.77;9.77;;;14.30;99.90;;;;;;5009876;28;20199;-38
2023/06/18 02:40:11;;;;;;;11.03;9.37;;;14.30;99.90;;;;;;4991836;28;20187;-35
2023/06/18 02:42:47;;;;;;;10.30;9.30;;;14.30;99.90;;;;;;4982465;28;20184;-36
2023/06/18 02:45:17;;;;;;;10.23;9.23;;;14.30;99.90;;;;;;4991326;28;20686;-36
2023/06/18 02:47:46;;;;;;;10.30;9.30;;;14.30;99.90;;;;;;4991091;28;20207;-35
2023/06/18 02:50:15;;;;;;;10.33;9.33;;;14.20;99.90;;;;;;5003473;28;20269;-35
2023/06/18 02:52:55;;;;;;;12.03;9.70;;;14.10;99.90;;;;;;5009721;28;20218;-38
2023/06/18 02:55:23;;;;;;;13.13;10.27;;;14.10;99.90;;;;;;4977751;28;20195;-36
2023/06/18 02:57:50;;;;;;;12.03;9.73;;;14.00;99.90;;;;;;4986486;28;20224;-39
2023/06/18 03:00:16;;;;;;;11.00;9.90;;;13.80;99.90;;;;;;5009878;28;20193;-38
2023/06/18 03:02:45;;;;;;;11.07;9.83;;;13.80;99.90;;;;;;4985600;28;20179;-35
2023/06/18 03:05:18;;;;;;;11.63;10.43;;;13.70;99.90;;;;;;4989953;28;20179;-37
2023/06/18 03:07:45;;;;;;;11.37;9.77;;;13.60;99.90;;;;;;5006187;28;20305;-34
2023/06/18 03:10:12;;;;;;;10.27;9.00;;;13.50;99.90;;;;;;4983452;28;20250;-37
2023/06/18 03:12:40;;;;;;;13.57;10.60;;;13.50;99.90;;;;;;5009349;28;20198;-38
2023/06/18 03:15:21;;;;;;;10.17;9.23;;;13.60;99.90;;;;;;4990317;28;20179;-37
2023/06/18 03:17:47;;;;;;;12.03;9.60;;;13.60;99.90;;;;;;4998048;28;20217;-38
2023/06/18 03:20:13;;;;;;;10.27;9.27;;;13.60;99.90;;;;;;5013105;28;20176;-37
2023/06/18 03:22:39;;;;;;;11.33;9.60;;;13.60;99.90;;;;;;5007251;28;20189;-38
2023/06/18 03:25:06;;;;;;;12.73;9.53;;;13.50;99.90;;;;;;4991598;28;20199;-38
2023/06/18 03:27:32;;;;;;;11.60;9.90;;;13.50;99.90;;;;;;4987590;28;20213;-36
2023/06/18 03:29:58;;;;;;;11.30;10.00;;;13.50;99.90;;;;;;5001402;28;20229;-39
2023/06/18 03:32:27;;;;;;;10.53;9.43;;;13.50;99.90;;;;;;4981354;28;20642;-34
2023/06/18 03:34:52;;;;;;;12.17;10.17;;;13.60;99.90;;;;;;4985099;28;20240;-35
2023/06/18 03:37:21;;;;;;;10.87;9.77;;;13.60;99.90;;;;;;5009249;28;20210;-40
2023/06/18 03:39:46;;;;;;;11.00;9.90;;;13.70;99.90;;;;;;4993079;28;20178;-36
2023/06/18 03:42:12;;;;;;;10.83;9.67;;;13.70;99.90;;;;;;4993008;28;20186;-36
2023/06/18 03:44:38;;;;;;;11.00;9.90;;;13.70;99.90;;;;;;5015351;28;20230;-36
2023/06/18 03:47:04;;;;;;;12.03;9.73;;;13.70;99.90;;;;;;4996245;28;20222;-35
2023/06/18 03:49:32;;;;;;;10.57;9.57;;;13.80;99.90;;;;;;4996931;28;20207;-39
2023/06/18 03:51:58;;;;;;;11.03;9.83;;;13.80;99.90;;;;;;5004937;28;20191;-37
2023/06/18 03:54:26;;;;;;;10.43;9.33;;;13.80;99.90;;;;;;5005025;28;20214;-35
2023/06/18 03:56:52;;;;;;;11.37;10.17;;;13.80;99.90;;;;;;4996578;28;20206;-33
2023/06/18 03:59:18;;;;;;;11.57;10.37;;;13.90;99.90;;;;;;4993979;28;20198;-34
2023/06/18 04:01:44;;;;;;;11.97;10.67;;;13.80;99.90;;;;;;5013301;28;20184;-35
2023/06/18 04:04:11;;;;;;;10.73;9.63;;;13.80;99.90;;;;;;5003306;28;20187;-35
2023/06/18 04:06:37;;;;;;;11.37;10.27;;;13.80;99.90;;;;;;4993168;28;20226;-37
2023/06/18 04:09:03;;;;;;;9.63;8.73;;;13.80;99.90;;;;;;4992972;28;20279;-35
2023/06/18 04:11:29;;;;;;;11.87;10.33;;;13.80;99.90;;;;;;4993960;28;20191;-37
2023/06/18 04:13:55;;;;;;;11.33;10.13;;;13.90;99.90;;;;;;5003999;28;20214;-34
2023/06/18 04:16:20;;;;;;;12.07;9.67;;;13.90;99.90;;;;;;5010011;28;20274;-40
2023/06/18 04:18:46;;;;;;;12.33;9.90;;;13.90;99.90;;;;;;4993331;28;20187;-38
2023/06/18 04:21:13;;;;;;;10.83;9.67;;;13.90;99.90;;;;;;5010893;28;20206;-40
2023/06/18 04:23:43;;;;;;;11.43;9.90;;;13.90;99.90;;;;;;4996497;28;20191;-38
2023/06/18 04:26:09;;;;;;;11.13;9.87;;;14.00;99.90;;;;;;4980212;28;20219;-35
2023/06/18 04:28:37;;;;;;;11.10;9.87;;;14.00;99.90;;;;;;4996535;28;20187;-34
2023/06/18 04:31:02;;;;;;;10.87;9.77;;;14.10;99.90;;;;;;4995494;28;20199;-35
2023/06/18 04:33:29;;;;;;;12.07;10.20;;;14.20;99.90;;;;;;5008299;28;20208;-37
2023/06/18 04:35:55;;;;;;;11.03;9.93;;;14.30;99.90;;;;;;4991565;28;20193;-35
2023/06/18 04:38:22;;;;;;;10.60;9.50;;;14.20;99.90;;;;;;4992921;28;20257;-38
2023/06/18 04:40:49;;;;;;;11.20;10.07;;;14.20;99.90;;;;;;5000925;28;20187;-35
2023/06/18 04:43:17;;;;;;;13.50;10.40;;;14.30;99.90;;;;;;5009900;28;20195;-36
2023/06/18 04:45:48;;;;;;;11.00;9.77;;;14.30;99.90;;;;;;4992900;28;20187;-38
2023/06/18 04:48:14;;;;;;;10.37;9.37;;;14.30;99.90;;;;;;5008991;28;20205;-33
2023/06/18 04:50:40;;;;;;;10.73;9.63;;;14.40;99.90;;;;;;4995088;28;20194;-38
2023/06/18 04:53:06;;;;;;;12.33;9.67;;;14.50;99.90;;;;;;4999512;28;20255;-37
2023/06/18 04:55:34;;;;;;;10.57;9.50;;;14.50;99.90;;;;;;5000164;28;20187;-38
2023/06/18 04:58:01;;;;;;;11.80;10.17;;;14.50;99.90;;;;;;5007787;28;20221;-38
2023/06/18 05:00:29;;;;;;;14.10;9.43;;;14.60;99.90;;;;;;4971795;28;20196;-34
2023/06/18 05:02:57;;;;;;;10.90;9.80;;;14.60;99.90;;;;;;5019273;28;20237;-40
2023/06/18 05:05:23;;;;;;;11.33;10.23;;;14.60;99.90;;;;;;5020879;28;20219;-35
2023/06/18 05:07:51;;;;;;;11.43;10.33;;;14.60;99.90;;;;;;4991913;28;20215;-37
2023/06/18 05:10:18;;;;;;;11.07;9.97;;;14.70;99.90;;;;;;4989225;28;20187;-33
2023/06/18 05:12:44;;;;;;;11.07;9.97;;;14.70;99.90;;;;;;4997568;28;20205;-41
2023/06/18 05:15:10;;;;;;;10.00;9.10;;;14.80;99.90;;;;;;4994637;28;20186;-41
2023/06/18 05:17:37;;;;;;;10.83;9.70;;;14.90;99.90;;;;;;4991556;28;20208;-36
2023/06/18 05:20:06;;;;;;;12.00;10.60;;;15.00;99.90;;;;;;4987402;28;20183;-35
2023/06/18 05:22:35;;;;;;;12.83;10.17;;;15.00;99.90;;;;;;5006658;28;20308;-38
2023/06/18 05:25:04;;;;;;;10.97;9.73;;;15.10;99.90;;;;;;4979462;28;20183;-38
2023/06/18 05:27:30;;;;;;;10.77;9.70;;;15.20;99.90;;;;;;5003032;28;20199;-35
2023/06/18 05:29:57;;;;;;;11.00;9.80;;;15.30;99.90;;;;;;4995317;28;20249;-35
2023/06/18 05:32:22;;;;;;;10.87;9.77;;;15.30;99.90;;;;;;4992677;28;20251;-35
2023/06/18 05:34:48;;;;;;;10.50;9.50;;;15.40;99.90;;;;;;5000134;28;20242;-38
2023/06/18 05:37:14;;;;;;;10.90;9.70;;;15.50;99.90;;;;;;5002279;28;20227;-36
2023/06/18 05:39:40;;;;;;;10.23;9.27;;;15.60;99.90;;;;;;4989874;28;20188;-38
2023/06/18 05:42:08;;;;;;;11.00;9.90;;;15.80;99.90;;;;;;4995325;28;20184;-38
2023/06/18 05:44:36;;;;;;;11.77;9.50;;;15.90;99.90;;;;;;5007737;28;20190;-35
2023/06/18 05:47:02;;;;;;;11.77;9.93;;;16.00;99.90;;;;;;5011474;28;20208;-36
2023/06/18 05:49:29;;;;;;;10.80;9.77;;;16.10;99.90;;;;;;4999516;28;20334;-37
2023/06/18 05:51:58;;;;;;;10.90;9.80;;;16.30;99.90;;;;;;5002253;28;20191;-36
2023/06/18 05:54:25;;;;;;;10.43;9.43;;;16.40;99.90;;;;;;5004842;28;20212;-36
2023/06/18 05:56:51;;;;;;;11.63;10.07;;;16.50;99.90;;;;;;4993502;28;20203;-35
2023/06/18 05:59:18;;;;;;;10.40;9.33;;;16.60;99.90;;;;;;4987942;28;20183;-38
2023/06/18 06:01:49;;;;;;;11.70;9.30;;;16.70;99.90;;;;;;4987471;28;20180;-35
2023/06/18 06:04:16;;;;;;;11.27;10.10;;;16.90;99.90;;;;;;5016769;28;20179;-37
2023/06/18 06:06:42;;;;;;;11.63;10.53;;;17.00;99.90;;;;;;4994934;28;20222;-34
2023/06/18 06:09:09;;;;;;;11.33;10.00;;;17.20;99.90;;;;;;5016983;28;20187;-38
2023/06/18 06:11:37;;;;;;;10.90;9.80;;;17.40;99.90;;;;;;4988778;28;20176;-36
2023/06/18 06:14:05;;;;;;;10.75;9.75;;;17.60;99.90;;;;;;5003007;28;20195;-36
2023/06/18 06:16:31;;;;;;;11.07;9.93;;;17.80;99.90;;;;;;5006122;28;20257;-35
2023/06/18 06:18:56;;;;;;;11.60;9.60;;;17.90;99.90;;;;;;4992668;28;20182;-38
2023/06/18 06:21:23;;;;;;;10.85;9.75;;;18.20;99.90;;;;;;4990511;28;20182;-36
2023/06/18 06:23:49;;;;;;;10.38;9.38;;;18.30;99.90;;;;;;4982386;28;20275;-39
2023/06/18 06:26:15;;;;;;;10.90;9.87;;;18.50;99.90;;;;;;4985150;28;20201;-38
2023/06/18 06:28:41;;;;;;;11.02;9.95;;;18.70;99.90;;;;;;4994503;28;20191;-36
2023/06/18 06:31:07;;;;;;;10.38;9.38;;;18.80;99.90;;;;;;5005750;28;20180;-35
2023/06/18 06:33:32;;;;;;;13.85;9.80;;;19.00;99.90;;;;;;5004959;28;20204;-33
2023/06/18 06:35:58;;;;;;;11.05;10.05;;;19.20;99.90;;;;;;4983868;28;20266;-40
2023/06/18 06:38:25;;;;;;;11.13;9.90;;;19.30;99.90;;;;;;4996375;28;20723;-39
2023/06/18 06:40:51;;;;;;;10.52;9.55;;;19.40;99.90;;;;;;5003891;28;20279;-38
2023/06/18 06:43:18;;;;;;;10.32;9.32;;;19.40;99.90;;;;;;5009540;28;20266;-35
2023/06/18 06:46:02;;;;;;;9.48;8.50;;;19.60;99.90;;;;;;5000399;28;20244;-37
2023/06/18 06:48:46;;;;;;;9.82;8.93;;;19.80;99.90;;;;;;5012623;28;20198;-38
2023/06/18 06:51:31;;;;;;;11.50;9.55;;;20.00;99.90;;;;;;5004547;28;20225;-40
2023/06/18 06:54:14;;;;;;;11.77;10.02;;;20.20;99.90;;;;;;5001210;28;20230;-41
2023/06/18 06:56:40;;;;;;;10.35;9.40;;;20.30;99.90;;;;;;4998295;28;20207;-42
2023/06/18 06:59:08;;;;;;;12.63;10.40;;;20.30;99.90;;;;;;4998906;28;20202;-42
2023/06/18 07:01:35;;;;;;;10.75;9.70;;;20.40;99.90;;;;;;4990355;28;20201;-39
2023/06/18 07:04:01;;;;;;;10.32;9.32;;;20.50;99.90;;;;;;4988520;28;20183;-41
2023/06/18 07:06:26;;;;;;;11.38;10.35;;;20.70;99.90;;;;;;4990562;28;20222;-34
2023/06/18 07:08:53;;;;;;;10.75;9.70;;;20.70;99.90;;;;;;4995163;28;20196;-42
2023/06/18 07:11:19;;;;;;;9.77;8.95;;;20.70;99.90;;;;;;5009981;28;20179;-42
2023/06/18 07:13:45;;;;;;;9.93;8.45;;;20.80;99.90;;;;;;4989737;28;20203;-40
2023/06/18 07:16:11;;;;;;;10.95;9.85;;;20.90;99.90;;;;;;5001081;28;20239;-40
2023/06/18 07:18:36;;;;;;;10.93;9.80;;;21.00;99.90;;;;;;5008766;28;20219;-42
2023/06/18 07:21:02;;;;;;;10.23;9.27;;;21.10;99.90;;;;;;5005478;28;20179;-42
2023/06/18 07:23:28;;;;;;;10.75;9.73;;;21.30;99.90;;;;;;4995449;28;20187;-41
2023/06/18 07:25:54;;;;;;;10.02;9.13;;;21.50;99.90;;;;;;4989233;28;20218;-42
2023/06/18 07:28:20;;;;;;;9.55;8.75;;;21.70;99.90;;;;;;4983273;28;20180;-42
2023/06/18 07:30:46;;;;;;;9.98;8.98;;;21.80;99.90;;;;;;5011787;28;20179;-42
2023/06/18 07:33:12;;;;;;;9.00;8.00;;;22.10;99.90;;;;;;5000914;28;20212;-43
2023/06/18 07:35:40;;;;;;;9.50;8.63;;;22.20;99.90;;;;;;4997934;28;20206;-43
2023/06/18 07:38:06;;;;;;;9.25;8.35;;;22.20;99.90;;;;;;5004548;28;20278;-42
2023/06/18 07:40:33;;;;;;;9.65;8.65;;;22.40;99.90;;;;;;4998572;28;20215;-36
2023/06/18 07:43:00;;;;;;;10.38;8.45;;;22.60;99.90;;;;;;4984727;28;20278;-39
2023/06/18 07:45:26;;;;;;;9.18;8.27;;;22.80;99.90;;;;;;5000913;28;20187;-36
2023/06/18 07:47:52;;;;;;;10.35;8.35;;;23.00;99.90;;;;;;5020460;28;20293;-39
2023/06/18 07:50:18;;;;;;;9.55;8.75;;;23.20;99.90;;;;;;4991737;28;20257;-39
2023/06/18 07:52:44;;;;;;;8.95;8.15;;;23.30;99.90;;;;;;5001106;28;20234;-36
2023/06/18 07:55:10;;;;;;;10.52;8.07;;;23.40;99.90;;;;;;5009940;28;20222;-41
2023/06/18 07:57:37;;;;;;;8.50;7.70;;;23.50;99.90;;;;;;4987020;28;20196;-35
2023/06/18 08:00:04;;;;;;;8.75;7.90;;;23.70;99.90;;;;;;4987527;28;20248;-43
2023/06/18 08:02:38;;;;;;;9.55;8.55;;;23.70;99.90;;;;;;5001107;28;20191;-43
2023/06/18 08:05:05;;;;;;;8.27;7.57;;;23.80;99.90;;;;;;5009236;28;20184;-43
2023/06/18 08:07:31;;;;;;;7.10;6.50;;;23.90;99.90;;;;;;4998496;28;20323;-40
2023/06/18 08:09:58;;;;;;;7.93;7.22;;;24.10;99.90;;;;;;5004102;28;20728;-42
2023/06/18 08:12:25;;;;;;;9.48;7.20;;;24.40;99.90;;;;;;4995463;28;20172;-43
2023/06/18 08:14:52;;;;;;;7.55;6.82;;;24.60;99.90;;;;;;5001497;28;20203;-43
2023/06/18 08:17:19;;;;;;;8.00;7.20;;;24.80;99.90;;;;;;4990571;28;20281;-43
2023/06/18 08:19:47;;;;;;;9.18;7.68;;;25.00;99.90;;;;;;4994293;28;20184;-43
2023/06/18 08:22:15;;;;;;;7.55;6.95;;;25.00;99.90;;;;;;4986334;28;20188;-42
2023/06/18 08:24:41;;;;;;;7.53;6.80;;;24.90;99.90;;;;;;4989728;28;20214;-43
2023/06/18 08:27:11;;;;;;;7.30;6.63;;;24.90;99.90;;;;;;4986259;28;20200;-43
2023/06/18 08:29:38;;;;;;;7.75;7.13;;;25.10;99.90;;;;;;5001346;28;20192;-43
2023/06/18 08:32:04;;;;;;;8.10;7.30;;;25.20;99.90;;;;;;4983397;28;20211;-43
2023/06/18 08:34:42;;;;;;;8.02;7.32;;;25.40;99.90;;;;;;4985573;28;20204;-41
2023/06/18 08:37:13;;;;;;;7.85;7.15;;;25.60;99.90;;;;;;4999258;28;20203;-43
2023/06/18 08:39:39;;;;;;;7.68;6.97;;;25.90;99.90;;;;;;5003548;28;20182;-42
2023/06/18 08:42:07;;;;;;;8.45;7.55;;;26.00;99.70;;;;;;4998220;28;20175;-42
2023/06/18 08:44:38;;;;;;;8.48;7.32;;;26.20;99.60;;;;;;5014365;28;20184;-38
2023/06/18 08:47:05;;;;;;;7.65;6.95;;;26.30;99.90;;;;;;5008247;28;20779;-39
2023/06/18 08:49:32;;;;;;;7.90;7.20;;;26.40;99.70;;;;;;4997020;28;20191;-35
2023/06/18 08:52:01;;;;;;;7.63;6.88;;;26.40;99.60;;;;;;4982729;28;20179;-40
2023/06/18 08:54:34;;;;;;;7.80;7.03;;;26.50;98.70;;;;;;5004422;28;20229;-40
2023/06/18 08:57:43;;;;;;;7.72;7.10;;;26.70;99.10;;;;;;4978069;28;20211;-38
2023/06/18 09:00:10;;;;;;;7.22;6.53;;;26.90;98.40;;;;;;4974948;28;20180;-37
2023/06/18 09:02:38;;;;;;;7.70;7.00;;;27.10;98.20;;;;;;4996432;28;20200;-36
2023/06/18 09:05:05;;;;;;;7.65;6.90;;;27.10;97.20;;;;;;5009513;28;20171;-35
2023/06/18 09:07:35;;;;;;;7.63;6.93;;;27.20;96.90;;;;;;4995733;28;20223;-36
2023/06/18 09:10:06;;;;;;;7.38;6.70;;;27.20;97.00;;;;;;4991851;28;20176;-36
2023/06/18 09:12:44;;;;;;;7.78;7.07;;;27.40;97.40;;;;;;5009201;28;20191;-35
2023/06/18 09:15:11;;;;;;;7.15;6.55;;;27.60;96.80;;;;;;5000129;28;20234;-40
2023/06/18 09:17:40;;;;;;;7.35;6.72;;;27.70;94.90;;;;;;4984600;28;20203;-34
2023/06/18 09:20:12;;;;;;;7.65;6.90;;;27.60;95.30;;;;;;5008670;28;20191;-37
2023/06/18 09:22:47;;;;;;;7.53;6.55;;;27.70;96.30;;;;;;5003659;28;20211;-39
2023/06/18 09:25:24;;;;;;;7.05;6.35;;;27.70;95.50;;;;;;5000134;28;20211;-37
2023/06/18 09:27:55;;;;;;;7.15;6.55;;;27.90;94.80;;;;;;5001625;28;20207;-37
2023/06/18 09:30:23;;;;;;;7.43;6.38;;;28.00;94.30;;;;;;5003380;28;20180;-37
2023/06/18 09:32:51;;;;;;;7.80;5.88;;;28.30;93.50;;;;;;5011472;28;20180;-37
2023/06/18 09:35:21;;;;;;;6.88;6.18;;;28.50;92.20;;;;;;5000385;28;20192;-41
2023/06/18 09:37:49;;;;;;;6.72;6.05;;;28.50;90.80;;;;;;4994971;28;20211;-38
2023/06/18 09:40:21;;;;;;;7.60;6.13;;;28.70;89.50;;;;;;5012519;28;20183;-39
2023/06/18 09:42:50;;;;;;;6.50;5.90;;;28.90;90.70;;;;;;5000383;28;20168;-37
2023/06/18 09:45:18;;;;;;;8.55;5.80;;;29.20;91.40;;;;;;5008025;28;20187;-38
2023/06/18 09:47:49;;;;;;;5.88;5.38;;;29.50;89.70;;;;;;5002523;28;20207;-38
2023/06/18 09:50:16;;;;;;;6.63;6.03;;;29.70;89.90;;;;;;4995332;28;20260;-40
2023/06/18 09:52:48;;;;;;;7.15;6.55;;;29.90;86.90;;;;;;5007353;28;20184;-37
2023/06/18 09:55:32;;;;;;;7.43;6.72;;;30.20;87.30;;;;;;4982892;28;20167;-40
2023/06/18 09:58:01;;;;;;;7.05;6.20;;;30.30;86.20;;;;;;5007844;28;20199;-37
2023/06/18 10:00:32;;;;;;;7.00;6.07;;;30.20;86.80;;;;;;4993963;28;20187;-38
2023/06/18 10:03:05;;;;;;;7.65;6.30;;;30.20;87.20;;;;;;4994429;28;20199;-38
2023/06/18 10:05:31;;;;;;;7.53;6.70;;;30.40;86.00;;;;;;4994348;28;20195;-36
2023/06/18 10:08:01;;;;;;;7.63;6.22;;;30.40;85.20;;;;;;4990325;28;20229;-39
2023/06/18 10:10:33;;;;;;;6.93;6.20;;;30.40;85.90;;;;;;5009015;28;20333;-39
2023/06/18 10:13:06;;;;;;;7.10;6.50;;;30.50;86.00;;;;;;5013041;28;20208;-39
2023/06/18 10:15:33;;;;;;;7.40;6.55;;;30.90;86.90;;;;;;4999080;28;20183;-37
2023/06/18 10:18:01;;;;;;;7.13;6.38;;;30.90;86.50;;;;;;4994262;28;20256;-42
2023/06/18 10:20:28;;;;;;;7.22;6.35;;;31.20;84.80;;;;;;5023799;28;20182;-38
2023/06/18 10:23:02;;;;;;;6.22;5.72;;;31.40;84.70;;;;;;5000821;28;20192;-41
2023/06/18 10:25:30;;;;;;;6.72;6.13;;;31.60;83.30;;;;;;5009391;28;20282;-39
2023/06/18 10:27:57;;;;;;;6.18;5.65;;;31.60;77.80;;;;;;4986298;28;20267;-43
2023/06/18 10:30:24;;;;;;;6.55;5.93;;;31.30;79.00;;;;;;4985236;28;20187;-43
2023/06/18 10:32:51;;;;;;;6.63;5.85;;;31.20;76.20;;;;;;4990080;28;20191;-42
2023/06/18 10:35:17;;;;;;;6.25;5.65;;;31.00;74.90;;;;;;5011103;28;20211;-43
2023/06/18 10:37:49;;;;;;;6.00;5.40;;;31.00;73.90;;;;;;5006365;28;20212;-42
2023/06/18 10:40:15;;;;;;;6.50;5.93;;;31.30;75.40;;;;;;4992420;28;20179;-43
2023/06/18 10:42:41;;;;;;;6.25;5.65;;;31.50;76.00;;;;;;4996269;28;20183;-42
2023/06/18 10:45:14;;;;;;;7.97;5.82;;;31.20;74.40;;;;;;4991671;28;20199;-43
2023/06/18 10:47:42;;;;;;;5.63;5.13;;;31.40;76.00;;;;;;4987789;28;20261;-44
2023/06/18 10:50:12;;;;;;;5.30;4.85;;;31.50;73.20;;;;;;4994459;28;20175;-43
2023/06/18 10:52:49;;;;;;;5.03;4.40;;;31.30;72.70;;;;;;5005889;28;20241;-43
2023/06/18 10:55:18;;;;;;;5.10;4.70;;;31.10;73.10;;;;;;5012169;28;20179;-43
2023/06/18 10:57:57;;;;;;;5.43;4.93;;;31.10;73.50;;;;;;5014704;28;20203;-41
2023/06/18 11:00:31;;;;;;;5.93;5.43;;;31.40;74.80;;;;;;4990772;28;20191;-43
2023/06/18 11:03:02;;;;;;;5.97;5.38;;;31.50;78.50;;;;;;5005628;28;20341;-43
2023/06/18 11:05:50;;;;;;;5.20;4.70;;;31.70;75.20;;;;;;4988563;28;20196;-43
2023/06/18 11:08:28;;;;;;;5.00;4.60;;;31.80;71.70;;;;;;5012730;28;20214;-43
2023/06/18 11:11:09;;;;;;;5.65;5.15;;;31.80;72.50;;;;;;5014253;28;20175;-43
2023/06/18 11:13:37;;;;;;;5.03;4.63;;;31.90;72.60;;;;;;4992880;28;20223;-43
2023/06/18 11:16:06;;;;;;;5.57;5.07;;;31.90;73.20;;;;;;5002296;28;20183;-43
2023/06/18 11:18:33;;;;;;;6.78;5.05;;;32.10;72.80;;;;;;4994652;28;20199;-43
2023/06/18 11:21:05;;;;;;;6.43;4.82;;;32.20;72.90;;;;;;5005248;28;20179;-43
2023/06/18 11:23:32;;;;;;;4.97;4.57;;;32.10;70.40;;;;;;5006901;28;20192;-43
2023/06/18 11:25:58;;;;;;;5.93;5.43;;;32.00;71.80;;;;;;4993715;28;20254;-43
2023/06/18 11:28:25;;;;;;;5.45;4.95;;;31.90;74.70;;;;;;5005900;28;20215;-43
2023/06/18 11:30:59;;;;;;;5.30;4.80;;;32.00;72.30;;;;;;4990884;28;20194;-42
2023/06/18 11:33:30;;;;;;;6.47;4.65;;;32.30;73.70;;;;;;4989847;28;20260;-43
2023/06/18 11:36:11;;;;;;;4.97;4.57;;;32.50;71.50;;;;;;4993286;28;20179;-43
2023/06/18 11:38:39;;;;;;;6.07;4.88;;;32.40;70.60;;;;;;4991332;28;20191;-42
2023/06/18 11:41:06;;;;;;;5.80;5.28;;;32.50;72.10;;;;;;5009450;28;20183;-43
2023/06/18 11:43:45;;;;;;;5.45;5.05;;;32.50;71.60;;;;;;4992117;28;20187;-43
2023/06/18 11:46:33;;;;;;;5.47;4.97;;;32.70;72.90;;;;;;5015096;28;20183;-43
2023/06/18 11:48:59;;;;;;;5.90;5.28;;;32.70;71.10;;;;;;4999057;28;20179;-44
2023/06/18 11:51:27;;;;;;;6.25;5.70;;;32.40;71.20;;;;;;4984763;28;20184;-40
2023/06/18 11:53:54;;;;;;;5.68;5.20;;;32.40;71.00;;;;;;4990855;28;20208;-43
2023/06/18 11:56:25;;;;;;;6.35;5.28;;;32.10;70.50;;;;;;5005223;28;20208;-42
2023/06/18 11:58:52;;;;;;;6.07;5.45;;;32.40;72.10;;;;;;5003655;28;20219;-43
2023/06/18 12:01:18;;;;;;;5.82;5.15;;;32.60;70.70;;;;;;4997808;28;20191;-42
2023/06/18 12:03:45;;;;;;;6.05;4.90;;;32.60;70.20;;;;;;5004425;28;20187;-41
2023/06/18 12:06:13;;;;;;;5.75;5.25;;;32.50;71.10;;;;;;4995466;28;20188;-43
2023/06/18 12:08:45;;;;;;;5.57;5.05;;;32.70;70.40;;;;;;4987764;28;20190;-42
2023/06/18 12:11:49;;;;;;;5.78;5.28;;;32.70;71.50;;;;;;4995120;28;20179;-42
2023/06/18 12:14:43;;;;;;;6.18;5.60;;;33.10;72.00;;;;;;4966405;28;20272;-42
2023/06/18 12:17:28;;;;;;;6.00;5.50;;;33.10;70.10;;;;;;4987173;28;20266;-43
2023/06/18 12:19:59;;;;;;;5.88;5.38;;;32.90;70.10;;;;;;5010962;28;20187;-43
2023/06/18 12:22:26;;;;;;;6.20;5.70;;;32.60;70.30;;;;;;4994360;28;20191;-43
2023/06/18 12:24:52;;;;;;;6.20;5.60;;;32.70;70.90;;;;;;4994347;28;20176;-41
2023/06/18 12:27:19;;;;;;;6.45;5.68;;;32.80;70.50;;;;;;4994562;28;21141;-43
2023/06/18 12:29:47;;;;;;;6.53;5.93;;;32.90;72.60;;;;;;4997625;28;20180;-44
2023/06/18 12:32:13;;;;;;;6.30;5.55;;;32.90;71.60;;;;;;4984847;28;20182;-44
2023/06/18 12:34:41;;;;;;;6.15;5.32;;;33.10;73.80;;;;;;4994423;28;20281;-43
2023/06/18 12:37:08;;;;;;;6.15;5.55;;;33.00;69.50;;;;;;4994079;28;20270;-43
2023/06/18 12:39:35;;;;;;;5.78;5.20;;;32.90;70.40;;;;;;5010180;28;20183;-40
2023/06/18 12:42:02;;;;;;;6.63;6.03;;;33.00;71.70;;;;;;5000308;28;20268;-43
2023/06/18 12:44:28;;;;;;;7.38;5.93;;;33.10;72.80;;;;;;5009209;28;20184;-43
2023/06/18 12:46:59;;;;;;;6.30;5.70;;;33.40;72.60;;;;;;5010783;28;20278;-43
2023/06/18 12:49:26;;;;;;;6.07;5.57;;;33.70;70.50;;;;;;5011637;28;20184;-43